Stations météo

réclame
Mon MeteoGroup
Mt. St.Vincent, France (7382): Température de l'air & dewpoint: 15.02.2019 03:00:00 - 21.02.2019 03:00:00 (CET)Mt. St.Vincent, France (7382): Vitesse du vent & gusts: 15.02.2019 03:00:00 - 21.02.2019 03:00:00 (CET)Mt. St.Vincent, France (7382): Direction du vent: 15.02.2019 03:00:00 - 21.02.2019 03:00:00 (CET)Mt. St.Vincent, France (7382): Ensoleillement: 15.02.2019 03:00:00 - 21.02.2019 03:00:00 (CET)Mt. St.Vincent, France (7382): Quantités de précipitations: 15.02.2019 03:00:00 - 21.02.2019 03:00:00 (CET)
Date & Time tt [°C] td [°C] ff [km/h] ff [knt] fx [km/h] fx [knt] dd sd [min] rr [mm]
21.02.2019 03:00:00 - - - - - - - - -
21.02.2019 02:00:00 9,1 -0,3 11 6 15 8 SE 0 0,0
21.02.2019 01:00:00 8,9 1,3 11 6 15 8 ESE 0 -
21.02.2019 00:00:00 9,0 2,8 11 6 16 9 ESE 0 0,0
20.02.2019 23:00:00 8,6 3,2 11 6 15 8 ESE 0 0,0
20.02.2019 22:00:00 - - - - - - - - -
20.02.2019 21:00:00 8,6 3,2 11 6 15 8 ESE 0 0,0
20.02.2019 20:00:00 9,1 3,1 11 6 13 7 ESE 0 0,0
20.02.2019 19:00:00 8,9 4,1 11 6 13 7 E 0 -
20.02.2019 18:00:00 9,7 4,9 8 4 9 5 E 48 0,0
20.02.2019 17:00:00 11,0 5,5 5 3 11 6 E 60 0,0
20.02.2019 16:00:00 12,6 4,8 4 2 11 6 NE 60 0,0
20.02.2019 15:00:00 13,2 3,8 5 3 15 8 W 60 0,0
20.02.2019 14:00:00 12,1 5,3 8 4 15 8 WNW 60 0,0
20.02.2019 13:00:00 11,5 5,1 4 2 11 6 W 60 -
20.02.2019 12:00:00 10,4 6,0 4 2 11 6 W 60 0,0
20.02.2019 11:00:00 10,7 5,0 4 2 9 5 WSW 54 0,0
20.02.2019 10:00:00 8,7 2,5 4 2 5 3 NNW 54 0,0
20.02.2019 09:00:00 8,3 2,9 2 1 11 6 SSE 54 0,0
20.02.2019 08:00:00 6,7 2,0 9 5 13 7 S 0 0,0
20.02.2019 07:00:00 6,0 2,6 9 5 13 7 SSE 0 -
20.02.2019 06:00:00 6,0 2,6 9 5 16 9 SSE 0 0,0
20.02.2019 05:00:00 6,0 3,3 13 7 18 10 SE 0 0,0
20.02.2019 04:00:00 6,3 3,5 11 6 16 9 ESE 0 0,0
20.02.2019 03:00:00 6,0 3,7 11 6 15 8 ESE 0 0,0
20.02.2019 02:00:00 5,4 4,4 13 7 18 10 E 0 0,0
20.02.2019 01:00:00 5,2 4,2 13 7 18 10 E 0 -
20.02.2019 00:00:00 5,9 4,1 11 6 18 10 ENE 0 0,0
19.02.2019 23:00:00 6,9 4,0 11 6 15 8 ENE 0 0,0
19.02.2019 22:00:00 7,6 4,2 9 5 13 7 ENE 0 0,0
19.02.2019 21:00:00 7,7 4,1 8 4 9 5 ENE 0 0,0
19.02.2019 20:00:00 8,0 4,0 5 3 8 4 ENE 0 0,0
19.02.2019 19:00:00 7,6 4,0 4 2 9 5 NNW 0 -
19.02.2019 18:00:00 8,8 4,0 4 2 11 6 NW 48 0,0
19.02.2019 17:00:00 10,6 4,5 5 3 11 6 W 60 0,0
19.02.2019 16:00:00 10,7 4,4 9 5 18 10 W 60 0,0
19.02.2019 15:00:00 10,8 4,5 8 4 21 11 W 60 0,0
19.02.2019 14:00:00 10,4 5,0 9 5 21 11 W 60 0,0
19.02.2019 13:00:00 9,4 4,2 9 5 21 11 WSW 60 -
19.02.2019 12:00:00 8,4 4,2 9 5 18 10 W 54 0,0
19.02.2019 11:00:00 7,2 2,5 13 7 24 13 W 48 0,0
19.02.2019 10:00:00 6,5 1,6 16 9 24 13 W 60 0,0
19.02.2019 09:00:00 5,5 1,0 18 10 22 12 W 18 0,0
19.02.2019 08:00:00 4,7 0,8 16 9 22 12 W 0 0,0
19.02.2019 07:00:00 4,7 0,8 16 9 22 12 W 0 -
19.02.2019 06:00:00 5,3 0,8 16 9 22 12 W 0 0,0
19.02.2019 05:00:00 5,6 1,1 16 9 21 11 W 0 0,0
19.02.2019 04:00:00 6,0 0,7 15 8 22 12 WSW 0 0,0
19.02.2019 03:00:00 6,3 0,8 13 7 26 14 WSW 0 0,0
19.02.2019 02:00:00 7,0 0,6 18 10 29 16 SW 0 0,0
19.02.2019 01:00:00 7,7 0,6 18 10 37 20 SW 0 -
19.02.2019 00:00:00 8,1 1,0 28 15 39 21 SSW 0 0,0
18.02.2019 23:00:00 7,8 1,2 18 10 31 17 SSW 0 0,0
18.02.2019 22:00:00 8,0 1,2 18 10 28 15 SSW 0 0,0
18.02.2019 21:00:00 8,6 0,8 16 9 24 13 S 0 0,0
18.02.2019 20:00:00 8,7 -0,4 11 6 16 9 SSW 0 0,0
18.02.2019 19:00:00 9,6 -0,6 13 7 18 10 SSE 0 -
18.02.2019 18:00:00 10,8 -0,7 11 6 26 14 SSW 48 0,0
18.02.2019 17:00:00 12,1 -0,8 16 9 39 21 SW 60 0,0
18.02.2019 16:00:00 12,8 -0,5 22 12 42 23 SW 60 0,0
18.02.2019 15:00:00 13,1 1,4 11 6 29 16 S 60 0,0
18.02.2019 14:00:00 13,5 1,8 8 4 21 11 SSW 60 0,0
18.02.2019 13:00:00 12,2 0,9 9 5 21 11 S 60 -
18.02.2019 12:00:00 10,2 -0,3 9 5 18 10 S 60 0,0
18.02.2019 11:00:00 8,5 -0,5 13 7 22 12 SE 54 0,0
18.02.2019 10:00:00 7,9 -1,1 13 7 22 12 S 60 0,0
18.02.2019 09:00:00 5,9 0,2 13 7 22 12 SSE 54 0,0
18.02.2019 08:00:00 4,3 0,4 16 9 28 15 SSE 0 0,0
18.02.2019 07:00:00 3,5 1,4 18 10 28 15 SE 0 -
18.02.2019 06:00:00 4,1 1,3 22 12 31 17 SE 0 0,0
18.02.2019 05:00:00 4,9 1,2 22 12 31 17 SE 0 0,0
18.02.2019 04:00:00 4,9 1,6 22 12 34 18 SE 0 0,0
18.02.2019 03:00:00 5,0 0,9 22 12 29 16 SE 0 0,0
18.02.2019 02:00:00 5,9 0,2 21 11 28 15 SE 0 0,0
18.02.2019 01:00:00 7,5 -1,5 18 10 31 17 SE 0 -
18.02.2019 00:00:00 8,5 -2,5 21 11 35 19 SSE 0 0,0
17.02.2019 23:00:00 8,9 -2,7 18 10 28 15 SSE 0 0,0
17.02.2019 22:00:00 10,5 -2,9 16 9 28 15 SSE 0 0,0
17.02.2019 21:00:00 11,2 -3,0 18 10 26 14 SSE 0 0,0
17.02.2019 20:00:00 11,8 -2,8 18 10 26 14 SE 0 0,0
17.02.2019 19:00:00 11,5 -1,7 18 10 24 13 SE 0 -
17.02.2019 18:00:00 12,7 -1,3 15 8 22 12 ESE 48 0,0
17.02.2019 17:00:00 14,2 -1,1 18 10 28 15 SE 60 0,0
17.02.2019 16:00:00 14,7 -0,6 18 10 26 14 ESE 60 0,0
17.02.2019 15:00:00 15,7 -1,0 13 7 22 12 ESE 60 0,0
17.02.2019 14:00:00 15,4 -0,8 11 6 22 12 ESE 60 0,0
17.02.2019 13:00:00 15,2 -3,7 13 7 28 15 SE 60 -
17.02.2019 12:00:00 14,0 -4,3 18 10 29 16 SSE 60 0,0
17.02.2019 11:00:00 12,7 -5,4 21 11 29 16 SSE 54 0,0
17.02.2019 10:00:00 11,4 -5,6 18 10 31 17 S 60 0,0
17.02.2019 09:00:00 9,4 -6,5 18 10 31 17 S 54 0,0
17.02.2019 08:00:00 8,4 -7,8 18 10 31 17 S 0 0,0
17.02.2019 07:00:00 8,6 -8,0 22 12 37 20 SSE 0 -
17.02.2019 06:00:00 9,0 -9,0 24 13 39 21 SSE 0 0,0
17.02.2019 05:00:00 9,4 -8,7 28 15 42 23 SSE 0 0,0
17.02.2019 04:00:00 8,9 -7,3 22 12 35 19 SSE 0 0,0
17.02.2019 03:00:00 10,3 -7,9 22 12 35 19 S 0 0,0
17.02.2019 02:00:00 10,4 -7,8 21 11 29 16 SSE 0 0,0
17.02.2019 01:00:00 10,9 -5,6 16 9 24 13 SSE 0 -
17.02.2019 00:00:00 11,6 -4,6 15 8 22 12 S 0 0,0
16.02.2019 23:00:00 11,7 -4,1 16 9 24 13 S 0 0,0
16.02.2019 22:00:00 11,3 -2,2 18 10 24 13 SSE 0 0,0
16.02.2019 21:00:00 11,1 -1,7 16 9 22 12 ESE 0 0,0
16.02.2019 20:00:00 11,6 -2,3 11 6 16 9 E 0 0,0
16.02.2019 19:00:00 11,4 -1,7 8 4 13 7 ENE 0 -
16.02.2019 18:00:00 11,9 -2,4 8 4 13 7 ENE 42 0,0
16.02.2019 17:00:00 12,6 0,0 9 5 11 6 E 60 0,0
16.02.2019 16:00:00 14,1 1,7 4 2 8 4 E 60 0,0
16.02.2019 15:00:00 15,8 0,0 4 2 16 9 SSE 60 0,0
16.02.2019 14:00:00 15,0 -4,4 11 6 22 12 WSW 60 0,0
16.02.2019 13:00:00 14,2 -6,1 11 6 26 14 WSW 60 -
16.02.2019 12:00:00 13,6 -5,6 13 7 24 13 WSW 60 0,0
16.02.2019 11:00:00 13,3 -3,1 8 4 15 8 WSW 54 0,0
16.02.2019 10:00:00 12,3 -6,7 8 4 11 6 S 60 0,0
16.02.2019 09:00:00 11,0 -4,7 9 5 16 9 SE 54 0,0
16.02.2019 08:00:00 11,5 -7,9 8 4 15 8 SE 0 0,0
16.02.2019 07:00:00 11,0 -7,8 5 3 8 4 S 0 -
16.02.2019 06:00:00 11,9 -8,1 5 3 13 7 WSW 0 0,0
16.02.2019 05:00:00 11,1 -5,4 11 6 16 9 SSW 0 0,0
16.02.2019 04:00:00 12,3 -5,3 13 7 22 12 SSW 0 0,0
16.02.2019 03:00:00 11,1 -3,8 16 9 22 12 SSE 0 0,0
16.02.2019 02:00:00 9,8 -1,9 15 8 22 12 SE 0 0,0
16.02.2019 01:00:00 9,2 -1,0 11 6 16 9 ESE 0 -
16.02.2019 00:00:00 9,1 0,8 11 6 18 10 ESE 0 0,0
15.02.2019 23:00:00 9,7 0,6 11 6 18 10 SE 0 0,0
15.02.2019 22:00:00 9,3 1,0 13 7 22 12 ESE 0 0,0
15.02.2019 21:00:00 9,2 0,9 15 8 21 11 ESE 0 0,0
15.02.2019 20:00:00 9,0 1,2 15 8 26 14 E 0 0,0
15.02.2019 19:00:00 8,5 1,6 21 11 28 15 E 0 -
15.02.2019 18:00:00 8,9 1,3 22 12 28 15 E 42 0,0
15.02.2019 17:00:00 10,1 2,0 21 11 28 15 E 60 0,0
15.02.2019 16:00:00 10,8 2,1 21 11 26 14 E 60 0,0
15.02.2019 15:00:00 11,5 1,1 18 10 29 16 E 60 0,0
15.02.2019 14:00:00 10,8 -0,1 21 11 29 16 E 60 0,0
15.02.2019 13:00:00 9,7 0,8 21 11 29 16 E 60 -
15.02.2019 12:00:00 9,9 1,0 18 10 41 22 E 60 0,0
15.02.2019 11:00:00 9,6 -1,8 22 12 39 21 SE 54 0,0
15.02.2019 10:00:00 5,3 -0,1 21 11 29 16 E 60 0,0
15.02.2019 09:00:00 5,0 -0,4 18 10 24 13 E 48 0,0
15.02.2019 08:00:00 4,1 -1,1 18 10 24 13 E 0 0,0
15.02.2019 07:00:00 4,9 -0,9 18 10 22 12 ESE 0 -
15.02.2019 06:00:00 5,1 -0,5 18 10 26 14 ESE 0 0,0
15.02.2019 05:00:00 4,8 -0,4 18 10 24 13 E 0 0,0
15.02.2019 04:00:00 5,7 -0,6 16 9 26 14 ESE 0 0,0
15.02.2019 03:00:00 4,9 -1,3 16 9 22 12 E 0 0,0

tt = Température de l'air
td = dewpoint
ff = Vitesse du vent
fx = gusts
dd = Direction du vent
sd = Ensoleillement
rr = Quantités de précipitations

stations d'obs. à proximité